Time;durP1;ratioP1;P1;durP2;ratioP2;P2;SDS_P1;SDS_P2;PMS_P1;PMS_P2;Temp;Humidity;BMP_temperature;BMP_pressure;BME280_temperature;BME280_humidity;BME280_pressure;Samples;Min_cycle;Max_cycle;Signal;HPM_P1;HPM_P2
2022/08/26 00:01:57;;;;;;;3.92;2.03;;;;;;;26.42;42.66;100767.00;5178515;28;20133;-80
2022/08/26 00:04:28;;;;;;;4.70;3.17;;;;;;;26.40;42.08;100767.16;5128142;28;20609;-81
2022/08/26 00:06:59;;;;;;;3.17;2.88;;;;;;;26.33;47.08;100776.78;5145118;28;20076;-80
2022/08/26 00:09:30;;;;;;;4.95;3.15;;;;;;;26.40;44.33;100778.75;5160927;28;20045;-80
2022/08/26 00:12:01;;;;;;;10.77;5.70;;;;;;;26.35;43.12;100781.03;5179926;28;20060;-81
2022/08/26 00:14:34;;;;;;;3.58;3.28;;;;;;;26.34;43.13;100778.50;5183367;28;20655;-81
2022/08/26 00:17:08;;;;;;;5.05;3.72;;;;;;;26.36;42.51;100776.53;5199905;28;20029;-81
2022/08/26 00:19:41;;;;;;;3.15;2.63;;;;;;;26.29;43.62;100778.91;5143872;28;20132;-81
2022/08/26 00:22:12;;;;;;;5.07;3.47;;;;;;;26.31;42.73;100785.00;5185333;28;20216;-81
2022/08/26 00:24:43;;;;;;;5.63;3.63;;;;;;;26.30;44.47;100787.81;5179930;28;20044;-81
2022/08/26 00:27:17;;;;;;;3.22;2.22;;;;;;;26.37;43.65;100781.75;5178795;28;20064;-81
2022/08/26 00:29:50;;;;;;;3.35;3.15;;;;;;;26.29;45.04;100795.06;5160072;28;20021;-81
2022/08/26 00:32:23;;;;;;;5.93;4.32;;;;;;;26.28;44.65;100793.34;5161268;28;21240;-81
2022/08/26 00:34:57;;;;;;;4.30;3.42;;;;;;;26.23;46.56;100784.88;5176440;28;20095;-81
2022/08/26 00:37:31;;;;;;;5.57;3.58;;;;;;;26.23;45.31;100796.47;5178036;28;20046;-81
2022/08/26 00:40:04;;;;;;;3.85;3.22;;;;;;;26.23;44.74;100798.31;5194545;28;20038;-81
2022/08/26 00:42:34;;;;;;;3.47;2.88;;;;;;;26.27;44.38;100801.56;5174628;28;20685;-81
2022/08/26 00:45:06;;;;;;;3.45;2.13;;;;;;;26.18;45.37;100803.25;5146826;28;20029;-81
2022/08/26 00:47:43;;;;;;;3.15;2.90;;;;;;;26.18;45.72;100801.44;5155923;28;20048;-81
2022/08/26 00:50:20;;;;;;;2.95;2.58;;;;;;;26.23;46.13;100804.53;5197691;28;20090;-81
2022/08/26 00:52:56;;;;;;;4.15;3.33;;;;;;;26.10;45.98;100803.97;5173307;28;20831;-81
2022/08/26 00:55:34;;;;;;;7.78;3.25;;;;;;;26.05;48.41;100801.69;5179826;28;20403;-81
2022/08/26 00:58:14;;;;;;;5.28;3.28;;;;;;;26.02;47.30;100796.56;5153106;28;20045;-81
2022/08/26 01:00:45;;;;;;;6.05;4.05;;;;;;;26.08;46.47;100801.41;5197675;28;20026;-81
2022/08/26 01:03:21;;;;;;;4.65;3.55;;;;;;;25.96;47.82;100799.84;5176686;28;20100;-81
2022/08/26 01:05:54;;;;;;;5.20;3.70;;;;;;;25.95;49.35;100800.81;5176441;28;20029;-81
2022/08/26 01:08:26;;;;;;;4.03;3.60;;;;;;;25.94;47.10;100799.13;5155544;28;20042;-80
2022/08/26 01:10:59;;;;;;;3.83;3.53;;;;;;;25.96;47.00;100797.16;5151131;28;20124;-81
2022/08/26 01:13:32;;;;;;;2.00;1.90;;;;;;;25.86;47.86;100804.34;5159194;28;20117;-80
2022/08/26 01:16:11;;;;;;;3.88;3.13;;;;;;;25.85;47.22;100805.31;5160730;28;20030;-80
2022/08/26 01:18:43;;;;;;;2.70;2.47;;;;;;;25.78;48.16;100807.75;5129500;28;20591;-80
2022/08/26 01:21:26;;;;;;;3.25;2.53;;;;;;;25.79;47.14;100805.88;5196689;28;20029;-80
2022/08/26 01:23:57;;;;;;;3.70;3.40;;;;;;;25.74;47.54;100809.00;5195475;28;20095;-81
2022/08/26 01:26:34;;;;;;;5.35;3.63;;;;;;;25.69;48.29;100806.72;5171372;28;20493;-81
2022/08/26 01:29:13;;;;;;;3.30;3.05;;;;;;;25.70;48.72;100816.47;5176271;28;20094;-80
2022/08/26 01:31:48;;;;;;;6.32;3.35;;;;;;;25.68;49.13;100820.31;5184239;28;20040;-80
2022/08/26 01:34:29;;;;;;;5.38;3.00;;;;;;;25.62;48.70;100813.63;5191729;28;20088;-80
2022/08/26 01:37:19;;;;;;;4.97;1.92;;;;;;;25.58;48.39;100818.44;5197056;28;20037;-81
2022/08/26 01:39:52;;;;;;;4.35;3.25;;;;;;;25.55;48.35;100815.19;5190361;28;20049;-81
2022/08/26 01:42:23;;;;;;;;;;;;;;;25.51;48.71;100824.47;5183337;28;20041;-81
2022/08/26 01:45:15;;;;;;;2.75;2.28;;;;;;;25.50;48.73;100828.16;5171290;28;19921;-81
2022/08/26 01:47:48;;;;;;;4.78;1.88;;;;;;;25.47;50.37;100825.75;5180593;28;20421;-81
2022/08/26 01:50:23;;;;;;;3.67;2.50;;;;;;;25.46;50.12;100832.94;5201674;28;20090;-81
2022/08/26 01:52:56;;;;;;;2.30;1.77;;;;;;;25.48;49.12;100827.47;5170071;28;20053;-81
2022/08/26 01:55:28;;;;;;;1.55;1.45;;;;;;;25.40;48.84;100837.06;5174332;28;20089;-81
2022/08/26 01:58:03;;;;;;;1.57;1.47;;;;;;;25.38;48.09;100833.63;5191962;28;20034;-81
2022/08/26 02:00:35;;;;;;;3.42;2.03;;;;;;;25.33;49.51;100837.69;5179933;28;20026;-81
2022/08/26 02:03:15;;;;;;;3.40;3.10;;;;;;;25.27;49.76;100833.69;5180583;28;20056;-81
2022/08/26 02:06:02;;;;;;;8.88;3.47;;;;;;;25.30;49.17;100839.66;5211150;28;20044;-81
2022/08/26 02:08:48;;;;;;;2.67;1.30;;;;;;;25.25;49.27;100841.03;5190092;28;20064;-81
2022/08/26 02:11:19;;;;;;;3.38;3.00;;;;;;;25.20;49.49;100844.16;5168431;28;20564;-80
2022/08/26 02:14:12;;;;;;;1.90;1.27;;;;;;;25.12;50.55;100841.28;5193385;28;20037;-80
2022/08/26 02:16:45;;;;;;;3.67;3.35;;;;;;;25.10;50.28;100843.25;5172311;28;20033;-81
2022/08/26 02:19:22;;;;;;;2.28;2.08;;;;;;;25.10;48.98;100851.28;5198908;28;20037;-82
2022/08/26 02:21:57;;;;;;;2.10;1.90;;;;;;;25.07;49.45;100849.72;5206197;28;20037;-80
2022/08/26 02:24:44;;;;;;;1.77;1.67;;;;;;;25.05;49.77;100851.69;5200486;28;20038;-82
2022/08/26 02:27:33;;;;;;;2.17;1.98;;;;;;;25.02;50.54;100851.94;5157383;28;20725;-81
2022/08/26 02:30:30;;;;;;;2.60;2.35;;;;;;;24.99;49.83;100861.13;5185585;28;20056;-80
2022/08/26 02:33:03;;;;;;;3.28;2.40;;;;;;;25.01;49.79;100863.66;5158026;28;20061;-80
2022/08/26 02:35:37;;;;;;;1.17;1.08;;;;;;;25.02;49.97;100867.22;5177730;28;20070;-81
2022/08/26 02:38:10;;;;;;;3.08;1.77;;;;;;;24.98;49.54;100866.63;5198962;28;20094;-81
2022/08/26 02:40:42;;;;;;;4.25;3.17;;;;;;;24.95;54.20;100865.06;5184648;28;20030;-81
2022/08/26 02:43:16;;;;;;;3.63;2.83;;;;;;;24.92;50.80;100862.63;5175585;28;20042;-81
2022/08/26 02:45:47;;;;;;;2.58;2.40;;;;;;;24.88;50.58;100863.03;5170234;28;20723;-81
2022/08/26 02:48:20;;;;;;;1.63;1.38;;;;;;;24.94;50.07;100870.53;5141678;28;20069;-80
2022/08/26 02:50:50;;;;;;;2.75;2.55;;;;;;;24.88;50.19;100868.41;5163885;28;20033;-81
2022/08/26 02:53:21;;;;;;;2.50;1.58;;;;;;;24.90;50.62;100869.13;5179682;28;20052;-81
2022/08/26 02:55:52;;;;;;;2.60;1.50;;;;;;;24.86;50.99;100867.66;5147724;28;20042;-81
2022/08/26 02:58:26;;;;;;;3.63;2.20;;;;;;;24.89;53.93;100862.88;5180351;28;20442;-81
2022/08/26 03:01:03;;;;;;;2.40;1.40;;;;;;;24.84;50.96;100867.81;5163645;28;20026;-81
2022/08/26 03:03:35;;;;;;;2.90;2.63;;;;;;;24.86;53.33;100857.81;5146128;28;20041;-81
2022/08/26 03:06:12;;;;;;;2.42;2.28;;;;;;;24.78;53.11;100863.81;5162429;28;20463;-80
2022/08/26 03:08:54;;;;;;;3.70;1.92;;;;;;;24.74;52.44;100861.50;5172748;28;20451;-80
2022/08/26 03:11:32;;;;;;;2.40;1.85;;;;;;;24.76;52.43;100856.88;5131493;28;20100;-80
2022/08/26 03:14:03;;;;;;;6.20;1.58;;;;;;;24.71;50.80;100864.47;5139030;28;20116;-81
2022/08/26 03:16:41;;;;;;;1.70;1.60;;;;;;;24.76;52.41;100862.25;5165086;28;20435;-79
2022/08/26 03:19:12;;;;;;;3.42;1.73;;;;;;;24.73;53.35;100858.00;5185540;28;20129;-80
2022/08/26 03:21:43;;;;;;;2.90;1.55;;;;;;;24.67;53.61;100859.38;5200426;28;20030;-80
2022/08/26 03:24:16;;;;;;;3.83;1.85;;;;;;;24.61;53.44;100862.53;5196630;28;20540;-80
2022/08/26 03:26:48;;;;;;;4.00;2.17;;;;;;;24.64;52.84;100864.09;5214503;28;20095;-80
2022/08/26 03:32:15;;;;;;;1.58;1.48;;;;;;;24.57;52.69;100862.94;5200431;28;20395;-80
2022/08/26 03:34:46;;;;;;;1.67;1.58;;;;;;;24.50;52.90;100863.41;5186551;28;20024;-81
2022/08/26 03:37:17;;;;;;;1.10;1.10;;;;;;;24.50;53.53;100868.78;5197045;28;20025;-81
2022/08/26 03:39:48;;;;;;;4.70;2.10;;;;;;;24.43;52.88;100862.25;5198941;28;20522;-81
2022/08/26 03:42:18;;;;;;;5.38;3.30;;;;;;;24.43;54.16;100864.09;5177309;28;20033;-80
2022/08/26 03:44:50;;;;;;;14.18;3.28;;;;;;;24.37;53.73;100868.13;5185876;28;20172;-81
2022/08/26 03:47:20;;;;;;;5.85;1.45;;;;;;;24.39;53.12;100866.16;5184458;28;20065;-81
2022/08/26 03:49:51;;;;;;;1.42;1.33;;;;;;;24.34;53.48;100866.56;5146367;28;20551;-81
2022/08/26 03:52:22;;;;;;;0.65;0.65;;;;;;;24.37;52.66;100862.75;5142216;28;20034;-81
2022/08/26 03:54:52;;;;;;;1.23;1.17;;;;;;;24.30;53.15;100861.56;5133715;28;20034;-81
2022/08/26 03:57:25;;;;;;;1.83;1.67;;;;;;;24.31;53.02;100858.75;5143897;28;20022;-81
2022/08/26 03:59:56;;;;;;;1.65;1.55;;;;;;;24.27;53.42;100862.69;5163262;28;20034;-81
2022/08/26 04:02:29;;;;;;;1.77;1.67;;;;;;;24.29;53.43;100867.91;5158989;28;20081;-81
2022/08/26 04:05:12;;;;;;;1.27;1.17;;;;;;;24.27;55.33;100864.50;5152643;28;20441;-81
2022/08/26 04:07:44;;;;;;;1.98;1.63;;;;;;;24.29;53.77;100866.09;5168791;28;20076;-81
2022/08/26 04:10:17;;;;;;;1.52;1.42;;;;;;;24.27;53.47;100867.19;5199093;28;20029;-81
2022/08/26 04:12:48;;;;;;;0.80;0.80;;;;;;;24.19;54.61;100868.66;5176645;28;20466;-81
2022/08/26 04:15:20;;;;;;;1.35;1.25;;;;;;;24.16;53.92;100862.72;5163838;28;20026;-81
2022/08/26 04:17:54;;;;;;;2.15;1.58;;;;;;;24.17;53.29;100865.25;5178041;28;20208;-81
2022/08/26 04:20:25;;;;;;;0.98;0.98;;;;;;;24.17;52.67;100867.94;5166105;28;20294;-81
2022/08/26 04:22:56;;;;;;;1.33;0.97;;;;;;;24.16;55.05;100870.75;5145093;28;20100;-81
2022/08/26 04:25:27;;;;;;;1.30;1.20;;;;;;;24.15;53.25;100869.03;5161364;28;20091;-80
2022/08/26 04:27:57;;;;;;;1.00;1.00;;;;;;;24.18;57.83;100863.44;5186461;28;20029;-80
2022/08/26 04:30:28;;;;;;;1.08;0.90;;;;;;;24.14;53.33;100878.94;5182520;28;20524;-81
2022/08/26 04:32:58;;;;;;;2.08;0.63;;;;;;;24.14;53.44;100867.34;5187230;28;20033;-81
2022/08/26 04:35:30;;;;;;;1.30;0.90;;;;;;;24.18;52.97;100869.66;5184314;28;20080;-81
2022/08/26 04:38:02;;;;;;;0.70;0.70;;;;;;;24.13;54.12;100868.34;5144573;28;20054;-81
2022/08/26 04:40:35;;;;;;;0.88;0.88;;;;;;;24.11;53.61;100857.72;5153481;28;20407;-81
2022/08/26 04:43:08;;;;;;;0.80;0.70;;;;;;;24.10;52.50;100873.94;5144112;28;20037;-81
2022/08/26 04:45:43;;;;;;;0.70;0.70;;;;;;;24.09;54.32;100870.41;5161930;28;20084;-81
2022/08/26 04:48:14;;;;;;;0.90;0.90;;;;;;;24.15;55.00;100874.41;5182379;28;20774;-82
2022/08/26 04:50:44;;;;;;;0.40;0.40;;;;;;;24.13;54.15;100882.59;5178167;28;20065;-81
2022/08/26 04:53:15;;;;;;;2.28;1.27;;;;;;;24.07;54.00;100877.75;5199895;28;20049;-82
2022/08/26 04:55:45;;;;;;;0.73;0.73;;;;;;;24.07;54.38;100876.88;5200930;28;20029;-82
2022/08/26 04:58:17;;;;;;;3.45;2.55;;;;;;;24.02;55.01;100879.91;5201926;28;20034;-82
2022/08/26 05:00:50;;;;;;;0.60;0.60;;;;;;;24.01;54.84;100883.56;5165583;28;20069;-81
2022/08/26 05:03:22;;;;;;;0.40;0.40;;;;;;;24.02;54.19;100880.78;5159468;28;20076;-81
2022/08/26 05:05:53;;;;;;;1.45;0.85;;;;;;;24.07;56.50;100884.91;5163618;28;20040;-81
2022/08/26 05:08:24;;;;;;;2.80;1.65;;;;;;;24.05;54.53;100885.03;5188310;28;20069;-81
2022/08/26 05:10:58;;;;;;;1.23;1.13;;;;;;;24.05;54.19;100887.72;5199665;28;20403;-81
2022/08/26 05:13:28;;;;;;;1.75;0.82;;;;;;;23.95;54.70;100889.44;5156990;28;20518;-81
2022/08/26 05:16:08;;;;;;;1.60;1.50;;;;;;;23.97;54.08;100891.00;5174037;28;20110;-81
2022/08/26 05:18:40;;;;;;;0.73;0.63;;;;;;;24.02;53.63;100885.28;5182953;28;20068;-81
2022/08/26 05:21:19;;;;;;;0.57;0.50;;;;;;;23.96;54.02;100881.31;5200809;28;20018;-81
2022/08/26 05:23:50;;;;;;;1.65;1.30;;;;;;;23.94;55.06;100883.25;5198856;28;20042;-81
2022/08/26 05:26:23;;;;;;;0.52;0.52;;;;;;;23.91;54.65;100877.25;5206219;28;20037;-81
2022/08/26 05:28:55;;;;;;;8.95;0.65;;;;;;;24.01;53.80;100880.91;5198722;28;20049;-81
2022/08/26 05:31:29;;;;;;;1.02;0.90;;;;;;;23.94;55.92;100885.06;5166448;28;20112;-80
2022/08/26 05:34:03;;;;;;;0.50;0.50;;;;;;;23.93;55.46;100891.34;5184387;28;20205;-80
2022/08/26 05:36:36;;;;;;;0.38;0.38;;;;;;;23.97;55.10;100887.50;5187023;28;20104;-80
2022/08/26 05:39:07;;;;;;;1.15;1.05;;;;;;;23.89;55.74;100894.31;5182286;28;20033;-80
2022/08/26 05:41:39;;;;;;;2.08;1.13;;;;;;;23.93;56.34;100889.53;5218959;28;20022;-80
2022/08/26 05:44:12;;;;;;;;;;;;;;;23.95;56.74;100884.94;5185003;28;20064;-80
2022/08/26 05:46:43;;;;;;;1.65;0.60;;;;;;;23.96;56.71;100891.16;5191162;28;19909;-81
2022/08/26 05:49:14;;;;;;;0.20;0.20;;;;;;;23.90;56.49;100892.47;5155679;28;20045;-80
2022/08/26 05:51:45;;;;;;;0.60;0.60;;;;;;;23.92;56.01;100895.03;5224279;28;20022;-81
2022/08/26 05:54:16;;;;;;;0.88;0.88;;;;;;;23.96;54.56;100896.50;5190270;28;20064;-82
2022/08/26 05:56:46;;;;;;;0.88;0.80;;;;;;;23.93;56.03;100899.38;5190347;28;20014;-81
2022/08/26 05:59:17;;;;;;;0.57;0.57;;;;;;;23.97;55.05;100899.06;5224371;28;20054;-80
2022/08/26 06:01:51;;;;;;;0.80;0.80;;;;;;;23.94;56.53;100898.44;5206273;28;20057;-79
2022/08/26 06:04:24;;;;;;;2.22;1.23;;;;;;;24.00;56.96;100893.47;5196566;28;20117;-80
2022/08/26 06:06:54;;;;;;;0.70;0.70;;;;;;;23.97;56.44;100901.72;5196777;28;20101;-80
2022/08/26 06:09:26;;;;;;;1.00;1.00;;;;;;;23.96;55.67;100908.09;5179642;28;20117;-80
2022/08/26 06:12:00;;;;;;;0.30;0.30;;;;;;;23.94;56.77;100903.81;5166406;28;20030;-80
2022/08/26 06:14:34;;;;;;;0.30;0.30;;;;;;;24.00;55.65;100906.03;5185058;28;20087;-80
2022/08/26 06:17:09;;;;;;;0.55;0.55;;;;;;;24.02;56.64;100901.34;5198506;28;20118;-81
2022/08/26 06:19:40;;;;;;;0.47;0.47;;;;;;;23.89;58.19;100907.69;5164600;28;20044;-81
2022/08/26 06:25:36;;;;;;;0.75;0.75;;;;;;;23.88;56.92;100900.63;5148551;28;20562;-82
2022/08/26 06:27:53;;;;;;;1.38;1.27;;;;;;;23.88;57.50;100900.63;5190729;28;20116;-81
2022/08/26 06:30:23;;;;;;;1.10;0.60;;;;;;;23.87;55.54;100904.28;5195279;28;20104;-82
2022/08/26 06:32:54;;;;;;;2.13;0.65;;;;;;;23.87;56.26;100903.44;5166654;28;20084;-81
2022/08/26 06:35:24;;;;;;;1.42;1.13;;;;;;;23.87;57.78;100904.28;5166776;28;20525;-81
2022/08/26 06:37:55;;;;;;;1.55;0.60;;;;;;;24.00;57.03;100908.69;5163469;28;20037;-82
2022/08/26 06:40:25;;;;;;;0.55;0.55;;;;;;;23.95;57.90;100917.09;5182508;28;20751;-80
2022/08/26 06:42:56;;;;;;;0.60;0.60;;;;;;;23.84;56.31;100909.88;5153807;28;20441;-80
2022/08/26 06:45:26;;;;;;;0.65;0.65;;;;;;;23.87;56.75;100920.34;5167133;28;20662;-80
2022/08/26 06:47:58;;;;;;;3.97;1.95;;;;;;;23.82;57.10;100927.94;5182749;28;20040;-81
2022/08/26 06:50:28;;;;;;;1.55;1.42;;;;;;;23.83;57.29;100918.91;5200110;28;20045;-80
2022/08/26 06:52:59;;;;;;;0.50;0.50;;;;;;;23.85;56.80;100921.47;5176249;28;20061;-81
2022/08/26 06:55:29;;;;;;;0.90;0.90;;;;;;;23.81;58.13;100930.72;5158886;28;20057;-80
2022/08/26 06:58:00;;;;;;;1.88;0.88;;;;;;;23.76;57.37;100932.91;5178560;28;20054;-80
2022/08/26 07:00:32;;;;;;;2.20;1.35;;;;;;;23.81;57.31;100934.25;5178972;28;20045;-80
2022/08/26 07:03:06;;;;;;;5.65;1.75;;;;;;;23.83;56.77;100935.00;5172071;28;20068;-80
2022/08/26 07:05:37;;;;;;;0.57;0.57;;;;;;;23.80;57.26;100934.38;5175523;28;20139;-80
2022/08/26 07:08:10;;;;;;;2.08;0.88;;;;;;;23.76;57.42;100930.22;5200878;28;20113;-80
2022/08/26 07:10:42;;;;;;;2.80;0.77;;;;;;;23.76;57.95;100932.91;5185401;28;20060;-80
2022/08/26 07:13:12;;;;;;;2.10;1.10;;;;;;;23.73;57.60;100934.84;5217016;28;20048;-80
2022/08/26 07:15:43;;;;;;;0.82;0.80;;;;;;;23.71;56.61;100930.59;5198092;28;20029;-81
2022/08/26 07:18:16;;;;;;;0.30;0.30;;;;;;;23.65;56.72;100937.28;5190049;28;20037;-80
2022/08/26 07:20:47;;;;;;;0.35;0.35;;;;;;;23.73;56.14;100945.56;5200087;28;20129;-81
2022/08/26 07:23:17;;;;;;;0.43;0.43;;;;;;;23.70;56.16;100939.59;5212312;28;20116;-81
2022/08/26 07:25:51;;;;;;;2.00;1.23;;;;;;;23.69;58.41;100938.75;5195573;28;20041;-81
2022/08/26 07:28:25;;;;;;;0.68;0.68;;;;;;;23.63;58.50;100938.38;5171022;28;20106;-81
2022/08/26 07:31:08;;;;;;;0.60;0.60;;;;;;;23.63;57.31;100939.25;5176605;28;20084;-81
2022/08/26 07:33:39;;;;;;;0.68;0.68;;;;;;;23.64;58.03;100951.66;5194850;28;20041;-81
2022/08/26 07:36:12;;;;;;;0.30;0.30;;;;;;;23.68;57.41;100942.41;5196219;28;20128;-80
2022/08/26 07:38:46;;;;;;;1.67;1.02;;;;;;;23.70;57.71;100951.19;5179960;28;20042;-81
2022/08/26 07:41:21;;;;;;;0.63;0.63;;;;;;;23.64;57.26;100950.81;5197571;28;20155;-81
2022/08/26 07:43:52;;;;;;;0.55;0.55;;;;;;;23.65;57.46;100957.88;5160221;28;20124;-81
2022/08/26 07:46:29;;;;;;;1.02;0.95;;;;;;;23.65;56.97;100952.53;5160060;28;20030;-81
2022/08/26 07:48:59;;;;;;;3.45;0.65;;;;;;;23.66;57.66;100964.94;5157853;28;20026;-80
2022/08/26 07:51:30;;;;;;;0.20;0.20;;;;;;;23.54;56.72;100958.72;5161165;28;20041;-81
2022/08/26 07:54:02;;;;;;;1.50;0.57;;;;;;;23.53;56.98;100960.53;5189904;28;20044;-81
2022/08/26 07:56:36;;;;;;;0.52;0.52;;;;;;;23.48;57.42;100965.41;5208030;28;20029;-81
2022/08/26 07:59:11;;;;;;;0.98;0.93;;;;;;;23.54;56.99;100964.09;5197883;28;20048;-81
2022/08/26 08:01:42;;;;;;;0.45;0.45;;;;;;;23.62;56.90;100964.34;5198726;28;20037;-82
2022/08/26 08:04:14;;;;;;;0.30;0.30;;;;;;;23.52;57.26;100964.19;5165460;28;20546;-81
2022/08/26 08:06:45;;;;;;;0.45;0.45;;;;;;;23.53;58.00;100960.53;5195059;28;20029;-80
2022/08/26 08:09:15;;;;;;;0.80;0.80;;;;;;;23.58;57.06;100962.84;5191979;28;20084;-79
2022/08/26 08:11:46;;;;;;;0.57;0.57;;;;;;;23.58;59.23;100962.84;5212787;28;20602;-79
2022/08/26 08:14:17;;;;;;;0.63;0.63;;;;;;;23.55;56.90;100971.16;5164638;28;20152;-79
2022/08/26 08:16:48;;;;;;;0.20;0.20;;;;;;;23.51;57.62;100972.34;5162800;28;20022;-79
2022/08/26 08:19:19;;;;;;;0.60;0.50;;;;;;;23.52;56.88;100964.19;5193830;28;20057;-79
2022/08/26 08:21:52;;;;;;;0.55;0.55;;;;;;;23.51;58.01;100957.13;5204141;28;20106;-79
2022/08/26 08:24:23;;;;;;;0.77;0.77;;;;;;;23.61;58.19;100964.44;5160923;28;20057;-80
2022/08/26 08:26:54;;;;;;;0.45;0.45;;;;;;;23.56;57.44;100965.66;5144950;28;20038;-81
2022/08/26 08:29:26;;;;;;;0.20;0.20;;;;;;;23.52;58.47;100964.19;5196248;28;20446;-80
2022/08/26 08:32:09;;;;;;;3.67;1.25;;;;;;;23.48;58.81;100961.88;5198798;28;20033;-81
2022/08/26 08:34:39;;;;;;;0.30;0.30;;;;;;;23.45;58.13;100965.63;5199597;28;20073;-79
2022/08/26 08:37:12;;;;;;;0.30;0.30;;;;;;;23.44;58.17;100971.13;5175887;28;20053;-79
2022/08/26 08:39:43;;;;;;;0.30;0.30;;;;;;;23.51;58.49;100975.88;5196413;28;20033;-79
2022/08/26 08:42:31;;;;;;;0.30;0.30;;;;;;;23.51;59.46;100972.34;5158942;28;20071;-80
2022/08/26 08:45:29;;;;;;;0.50;0.50;;;;;;;23.47;58.44;100966.38;5170755;28;20544;-80
2022/08/26 08:48:20;;;;;;;1.33;1.23;;;;;;;23.48;57.46;100964.53;5142648;28;20045;-81
2022/08/26 08:50:55;;;;;;;2.28;1.27;;;;;;;23.48;58.58;100962.72;5190161;28;20104;-82
2022/08/26 08:53:40;;;;;;;1.67;1.58;;;;;;;23.47;57.68;100960.19;5158571;28;20462;-81
2022/08/26 08:56:27;;;;;;;0.70;0.70;;;;;;;23.45;58.29;100968.31;5181136;28;20160;-79
2022/08/26 08:59:17;;;;;;;0.43;0.43;;;;;;;23.49;59.00;100974.28;5158554;28;20039;-80
2022/08/26 09:01:50;;;;;;;0.65;0.65;;;;;;;23.52;57.93;100969.53;5182385;28;20458;-80
2022/08/26 09:04:33;;;;;;;0.88;0.80;;;;;;;23.51;58.71;100972.34;5121967;28;20541;-80
2022/08/26 09:07:07;;;;;;;0.30;0.30;;;;;;;23.50;57.44;100974.19;5193105;28;20030;-80
2022/08/26 09:09:46;;;;;;;0.20;0.20;;;;;;;23.52;57.31;100972.22;5168089;28;20041;-79
2022/08/26 09:12:25;;;;;;;1.65;0.40;;;;;;;23.53;57.91;100973.94;5190687;28;20041;-81
2022/08/26 09:15:01;;;;;;;0.55;0.55;;;;;;;23.63;57.14;100974.06;5198565;28;20033;-81
2022/08/26 09:17:43;;;;;;;0.30;0.30;;;;;;;23.53;57.22;100970.41;5172391;28;20166;-80
2022/08/26 09:21:02;;;;;;;0.50;0.50;;;;;;;23.53;57.62;100973.94;5173396;28;20738;-79
2022/08/26 09:23:38;;;;;;;0.60;0.60;;;;;;;23.56;57.17;100976.38;5069774;29;20535;-80
2022/08/26 09:26:25;;;;;;;3.25;1.33;;;;;;;23.58;56.95;100984.28;5162766;28;20035;-77
2022/08/26 09:29:09;;;;;;;1.40;1.30;;;;;;;23.60;57.70;100990.38;5173708;28;20095;-80
2022/08/26 09:31:44;;;;;;;0.63;0.63;;;;;;;23.60;57.16;100985.03;5140240;28;20116;-79
2022/08/26 09:34:24;;;;;;;0.30;0.30;;;;;;;23.64;57.40;100988.31;5156417;28;20042;-79
2022/08/26 09:36:57;;;;;;;0.30;0.30;;;;;;;23.70;57.29;100993.19;5174131;28;20042;-81
2022/08/26 09:39:37;;;;;;;0.63;0.63;;;;;;;23.69;57.67;100991.47;5170752;28;20487;-81
2022/08/26 09:42:12;;;;;;;0.40;0.40;;;;;;;23.72;56.79;100991.25;5190917;28;20065;-79
2022/08/26 09:45:26;;;;;;;0.30;0.30;;;;;;;23.80;56.46;100994.16;5175184;28;20088;-80
2022/08/26 09:47:57;;;;;;;0.70;0.65;;;;;;;23.82;56.22;100994.03;5104322;28;20070;-79
2022/08/26 09:50:32;;;;;;;0.73;0.73;;;;;;;23.83;56.35;100993.94;5105251;28;20033;-78
2022/08/26 09:53:13;;;;;;;0.55;0.55;;;;;;;23.84;57.50;100990.25;5124050;28;20088;-79
2022/08/26 09:55:50;;;;;;;0.40;0.40;;;;;;;23.86;56.83;100988.31;5157867;28;20316;-79
2022/08/26 09:58:33;;;;;;;0.30;0.30;;;;;;;23.87;56.94;100987.34;5188709;28;20459;-79
2022/08/26 10:01:06;;;;;;;0.93;0.80;;;;;;;23.94;57.35;100989.56;5174751;28;20578;-80
2022/08/26 10:03:38;;;;;;;;;;;;;;;23.98;56.71;100985.69;5177469;28;20044;-79
2022/08/26 10:06:18;;;;;;;11.15;1.55;;;;;;;24.02;56.31;100984.44;5191415;28;19917;-79
2022/08/26 10:08:53;;;;;;;0.57;0.57;;;;;;;24.05;56.87;100986.88;5156287;28;20588;-78
2022/08/26 10:11:50;;;;;;;0.40;0.40;;;;;;;24.01;57.15;100980.06;5177653;28;20037;-82
2022/08/26 10:14:26;;;;;;;0.30;0.30;;;;;;;24.08;56.37;100980.41;5164421;28;20038;-80
2022/08/26 10:17:23;;;;;;;0.35;0.35;;;;;;;24.08;57.10;100981.28;5175271;28;20034;-80
2022/08/26 10:20:14;;;;;;;3.40;0.93;;;;;;;24.05;57.31;100977.00;5161572;28;20080;-82
2022/08/26 10:23:13;;;;;;;0.73;0.47;;;;;;;24.01;57.36;100980.06;5167730;28;20449;-80
2022/08/26 10:25:53;;;;;;;0.30;0.30;;;;;;;24.05;56.25;100981.53;5212635;28;20056;-80
2022/08/26 10:28:40;;;;;;;0.30;0.30;;;;;;;24.11;56.63;100983.69;5185880;28;20092;-80
2022/08/26 10:31:28;;;;;;;0.30;0.30;;;;;;;24.11;56.84;100982.88;5179772;28;20487;-80
2022/08/26 10:33:59;;;;;;;0.57;0.57;;;;;;;24.10;56.48;100984.69;5176260;28;20038;-81
2022/08/26 10:36:50;;;;;;;0.35;0.35;;;;;;;24.08;57.81;100981.28;5197320;28;20569;-80
2022/08/26 10:39:50;;;;;;;0.90;0.40;;;;;;;24.13;57.93;100973.72;5180546;28;20467;-79
2022/08/26 10:42:27;;;;;;;0.68;0.35;;;;;;;24.05;57.21;100973.47;5146716;28;20052;-80
2022/08/26 10:45:06;;;;;;;0.60;0.60;;;;;;;24.04;57.38;100974.47;5197156;28;20471;-80
2022/08/26 10:47:52;;;;;;;1.30;0.47;;;;;;;24.06;57.42;100975.19;5173084;28;20072;-81
2022/08/26 10:50:27;;;;;;;0.30;0.30;;;;;;;24.04;57.00;100969.09;5199085;28;20075;-79
2022/08/26 10:53:18;;;;;;;0.30;0.30;;;;;;;24.04;57.30;100969.09;5198064;28;20037;-80
2022/08/26 10:56:04;;;;;;;0.30;0.30;;;;;;;24.10;57.21;100968.59;5197642;28;20041;-81
2022/08/26 10:58:56;;;;;;;1.73;1.00;;;;;;;24.11;57.90;100972.97;5183253;28;20446;-81
2022/08/26 11:01:53;;;;;;;7.60;0.55;;;;;;;24.16;56.87;100967.25;5192824;28;20040;-80
2022/08/26 11:04:39;;;;;;;0.40;0.40;;;;;;;24.06;57.83;100961.78;5195727;28;20545;-80
2022/08/26 11:07:33;;;;;;;1.42;0.50;;;;;;;24.09;57.87;100958.84;5162749;28;20372;-81
2022/08/26 11:10:11;;;;;;;0.50;0.50;;;;;;;24.08;57.60;100964.34;5183272;28;20026;-81
2022/08/26 11:12:44;;;;;;;0.40;0.40;;;;;;;24.05;58.42;100960.09;5151494;28;20049;-81
2022/08/26 11:15:21;;;;;;;0.20;0.20;;;;;;;24.08;58.05;100951.81;5153812;28;20018;-82
2022/08/26 11:18:11;;;;;;;0.30;0.30;;;;;;;24.07;58.99;100966.19;5214815;28;20192;-81
2022/08/26 11:20:45;;;;;;;0.30;0.30;;;;;;;24.08;58.50;100961.66;5183477;28;20038;-81
2022/08/26 11:23:19;;;;;;;0.40;0.40;;;;;;;24.10;58.95;100960.56;5186472;28;20037;-81
2022/08/26 11:26:12;;;;;;;9.73;1.50;;;;;;;24.10;57.99;100954.34;5211357;28;20083;-81
2022/08/26 11:28:49;;;;;;;0.30;0.30;;;;;;;24.07;57.67;100959.94;5185834;28;20044;-80
2022/08/26 11:31:23;;;;;;;0.22;0.22;;;;;;;24.11;57.91;100959.59;5196357;28;20036;-80
2022/08/26 11:33:59;;;;;;;1.95;1.00;;;;;;;24.13;58.10;100959.47;5180820;28;20056;-81
2022/08/26 11:36:36;;;;;;;2.10;1.35;;;;;;;24.09;58.07;100960.69;5179002;28;20184;-81
2022/08/26 11:39:34;;;;;;;0.30;0.30;;;;;;;24.08;57.83;100964.34;5178607;28;20034;-81
2022/08/26 11:42:27;;;;;;;0.28;0.28;;;;;;;24.14;57.62;100961.16;5153044;28;20030;-81
2022/08/26 11:45:00;;;;;;;0.65;0.50;;;;;;;24.13;58.17;100970.19;5213167;28;20046;-81
2022/08/26 11:47:30;;;;;;;0.35;0.35;;;;;;;24.12;57.21;100972.00;5171792;28;20060;-80
2022/08/26 11:50:15;;;;;;;0.20;0.20;;;;;;;24.06;57.77;100972.50;5158840;28;20065;-80
2022/08/26 11:52:52;;;;;;;0.52;0.52;;;;;;;24.03;58.21;100967.38;5156425;28;20382;-80
2022/08/26 11:55:22;;;;;;;5.35;1.00;;;;;;;24.09;57.38;100961.53;5172390;28;20026;-80
2022/08/26 11:57:59;;;;;;;0.30;0.30;;;;;;;24.04;57.31;100964.59;5154588;28;20042;-80
2022/08/26 12:00:46;;;;;;;5.85;0.63;;;;;;;24.08;57.82;100964.34;5175457;28;20069;-80
2022/08/26 12:03:21;;;;;;;0.55;0.55;;;;;;;24.10;57.82;100971.28;5172414;28;20045;-81
2022/08/26 12:05:53;;;;;;;0.30;0.30;;;;;;;24.03;58.40;100962.91;5203970;28;20125;-81
2022/08/26 12:08:27;;;;;;;0.25;0.25;;;;;;;23.96;59.10;100976.91;5200315;28;20072;-81
2022/08/26 12:11:12;;;;;;;0.30;0.30;;;;;;;23.95;58.50;100970.69;5160555;28;20026;-81
2022/08/26 12:13:59;;;;;;;10.68;1.10;;;;;;;23.95;57.73;100973.38;5169805;28;20073;-80